createdAt,value
2022-12-15T00:00:02.931Z,-4.70
2022-12-15T00:02:48.356Z,-4.70
2022-12-15T00:05:33.907Z,-4.80
2022-12-15T00:08:28.632Z,-4.80
2022-12-15T00:11:14.360Z,-4.90
2022-12-15T00:14:00.654Z,-5.00
2022-12-15T00:16:45.965Z,-5.10
2022-12-15T00:19:31.666Z,-5.10
2022-12-15T00:22:16.880Z,-5.10
2022-12-15T00:25:02.501Z,-4.90
2022-12-15T00:27:47.963Z,-4.90
2022-12-15T00:30:33.779Z,-4.80
2022-12-15T00:33:19.044Z,-4.60
2022-12-15T00:36:08.203Z,-4.50
2022-12-15T00:38:47.871Z,-4.40
2022-12-15T00:41:17.486Z,-4.30
2022-12-15T00:43:45.022Z,-4.30
2022-12-15T00:46:30.843Z,-4.30
2022-12-15T00:48:59.270Z,-4.30
2022-12-15T00:51:44.954Z,-4.40
2022-12-15T00:54:30.375Z,-4.40
2022-12-15T00:57:15.828Z,-4.30
2022-12-15T01:00:05.418Z,-4.30
2022-12-15T01:02:51.069Z,-4.30
2022-12-15T01:05:36.521Z,-4.10
2022-12-15T01:08:22.369Z,-4.10
2022-12-15T01:11:07.736Z,-4.10
2022-12-15T01:13:53.348Z,-4.00
2022-12-15T01:16:39.020Z,-4.10
2022-12-15T01:19:27.046Z,-4.10
2022-12-15T01:21:54.147Z,-3.90
2022-12-15T01:24:24.757Z,-3.80
2022-12-15T01:26:52.084Z,-3.80
2022-12-15T01:29:19.148Z,-3.80
2022-12-15T01:31:50.035Z,-3.80
2022-12-15T01:34:22.914Z,-3.70
2022-12-15T01:36:50.354Z,-3.80
2022-12-15T01:39:17.376Z,-3.90
2022-12-15T01:41:44.387Z,-4.00
2022-12-15T01:44:21.911Z,-4.10
2022-12-15T01:46:49.983Z,-4.00
2022-12-15T01:49:21.135Z,-4.00
2022-12-15T01:51:50.075Z,-4.00
2022-12-15T01:54:21.200Z,-4.00
2022-12-15T01:56:50.267Z,-3.90
2022-12-15T01:59:20.198Z,-4.00
2022-12-15T02:01:50.020Z,-4.00
2022-12-15T02:04:18.540Z,-4.00
2022-12-15T02:06:49.173Z,-4.10
2022-12-15T02:09:16.752Z,-4.00
2022-12-15T02:11:56.044Z,-3.90
2022-12-15T02:14:37.982Z,-3.80
2022-12-15T02:17:08.350Z,-3.70
2022-12-15T02:19:45.720Z,-3.80
2022-12-15T02:22:27.909Z,-3.90
2022-12-15T02:25:10.246Z,-3.80
2022-12-15T02:27:46.338Z,-3.80
2022-12-15T02:30:19.707Z,-3.90
2022-12-15T02:32:50.037Z,-4.00
2022-12-15T02:35:21.569Z,-4.10
2022-12-15T02:37:49.783Z,-4.30
2022-12-15T02:40:17.971Z,-4.40
2022-12-15T02:42:47.340Z,-4.50
2022-12-15T02:45:21.538Z,-4.50
2022-12-15T02:47:51.743Z,-4.40
2022-12-15T02:50:28.221Z,-4.30
2022-12-15T02:53:16.174Z,-4.30
2022-12-15T02:55:52.464Z,-4.40
2022-12-15T02:58:23.203Z,-4.40
2022-12-15T03:00:57.779Z,-4.30
2022-12-15T03:03:29.520Z,-4.30
2022-12-15T03:05:57.506Z,-4.30
2022-12-15T03:08:25.868Z,-4.30
2022-12-15T03:10:53.556Z,-4.20
2022-12-15T03:13:21.045Z,-4.10
2022-12-15T03:15:49.147Z,-4.00
2022-12-15T03:18:16.551Z,-3.80
2022-12-15T03:20:43.883Z,-3.80
2022-12-15T03:23:10.907Z,-3.90
2022-12-15T03:25:38.056Z,-4.00
2022-12-15T03:28:05.135Z,-4.10
2022-12-15T03:30:32.140Z,-4.20
2022-12-15T03:32:59.344Z,-4.30
2022-12-15T03:35:26.441Z,-4.30
2022-12-15T03:37:56.182Z,-4.30
2022-12-15T03:40:23.215Z,-4.40
2022-12-15T03:42:52.989Z,-4.40
2022-12-15T03:45:22.103Z,-4.30
2022-12-15T03:47:49.485Z,-4.30
2022-12-15T03:50:18.659Z,-4.30
2022-12-15T03:52:49.222Z,-4.20
2022-12-15T03:55:16.307Z,-4.10
2022-12-15T03:57:43.510Z,-4.10
2022-12-15T04:00:11.509Z,-4.10
2022-12-15T04:02:42.883Z,-3.90
2022-12-15T04:05:13.883Z,-4.00
2022-12-15T04:07:41.091Z,-4.00
2022-12-15T04:10:08.307Z,-4.10
2022-12-15T04:12:35.359Z,-4.20
2022-12-15T04:15:02.612Z,-4.40
2022-12-15T04:17:30.639Z,-4.60
2022-12-15T04:20:09.921Z,-4.70
2022-12-15T04:22:38.557Z,-4.80
2022-12-15T04:25:25.488Z,-4.80
2022-12-15T04:28:10.999Z,-4.70
2022-12-15T04:30:57.427Z,-4.50
2022-12-15T04:33:43.177Z,-4.30
2022-12-15T04:36:31.042Z,-4.20
2022-12-15T04:39:17.104Z,-4.10
2022-12-15T04:42:02.744Z,-4.10
2022-12-15T04:44:50.097Z,-4.10
2022-12-15T04:47:40.092Z,-4.10
2022-12-15T04:50:25.674Z,-4.10
2022-12-15T04:53:11.324Z,-4.00
2022-12-15T04:55:56.765Z,-4.10
2022-12-15T04:58:46.375Z,-4.20
2022-12-15T05:01:31.774Z,-4.30
2022-12-15T05:04:17.860Z,-4.30
2022-12-15T05:07:03.243Z,-4.30
2022-12-15T05:09:49.033Z,-4.50
2022-12-15T05:12:34.534Z,-4.50
2022-12-15T05:15:20.002Z,-4.60
2022-12-15T05:18:05.682Z,-4.60
2022-12-15T05:20:51.271Z,-4.70
2022-12-15T05:23:36.622Z,-4.80
2022-12-15T05:26:22.190Z,-4.70
2022-12-15T05:29:07.908Z,-4.60
2022-12-15T05:31:53.051Z,-4.60
2022-12-15T05:34:24.957Z,-4.70
2022-12-15T05:36:53.229Z,-4.70
2022-12-15T05:39:21.437Z,-4.80
2022-12-15T05:41:54.499Z,-4.70
2022-12-15T05:44:22.946Z,-4.70
2022-12-15T05:46:53.829Z,-4.70
2022-12-15T05:49:23.615Z,-4.60
2022-12-15T05:51:50.784Z,-4.70
2022-12-15T05:54:22.002Z,-4.80
2022-12-15T05:56:50.059Z,-4.80
2022-12-15T05:59:17.951Z,-4.80
2022-12-15T06:01:45.280Z,-4.70
2022-12-15T06:04:15.606Z,-4.60
2022-12-15T06:06:42.845Z,-4.60
2022-12-15T06:09:09.867Z,-4.50
2022-12-15T06:11:37.977Z,-4.40
2022-12-15T06:14:05.020Z,-4.30
2022-12-15T06:16:39.566Z,-4.20
2022-12-15T06:19:09.964Z,-4.20
2022-12-15T06:21:36.992Z,-4.10
2022-12-15T06:24:08.593Z,-4.20
2022-12-15T06:26:36.784Z,-4.30
2022-12-15T06:29:04.882Z,-4.40
2022-12-15T06:31:32.175Z,-4.40
2022-12-15T06:34:02.075Z,-4.50
2022-12-15T06:36:31.156Z,-4.50
2022-12-15T06:39:02.551Z,-4.40
2022-12-15T06:41:32.353Z,-4.40
2022-12-15T06:43:59.683Z,-4.50
2022-12-15T06:46:28.165Z,-4.60
2022-12-15T06:48:55.637Z,-4.60
2022-12-15T06:51:23.198Z,-4.40
2022-12-15T06:53:51.218Z,-4.40
2022-12-15T06:56:33.104Z,-4.50
2022-12-15T06:59:02.076Z,-4.60
2022-12-15T07:01:29.846Z,-4.50
2022-12-15T07:03:57.515Z,-4.20
2022-12-15T07:06:29.775Z,-4.00
2022-12-15T07:08:56.975Z,-3.80
2022-12-15T07:11:24.166Z,-3.70
2022-12-15T07:13:52.410Z,-3.70
2022-12-15T07:16:22.042Z,-3.80
2022-12-15T07:18:49.606Z,-4.00
2022-12-15T07:21:20.053Z,-4.00
2022-12-15T07:23:56.296Z,-4.10
2022-12-15T07:26:24.509Z,-4.10
2022-12-15T07:28:51.548Z,-4.10
2022-12-15T07:31:18.849Z,-4.00
2022-12-15T07:33:47.684Z,-3.90
2022-12-15T07:36:14.699Z,-3.90
2022-12-15T07:38:50.269Z,-4.00
2022-12-15T07:41:18.764Z,-4.00
2022-12-15T07:43:50.101Z,-4.10
2022-12-15T07:46:18.489Z,-4.10
2022-12-15T07:48:50.317Z,-4.20
2022-12-15T07:51:20.355Z,-4.10
2022-12-15T07:53:51.458Z,-4.10
2022-12-15T07:56:19.822Z,-4.10
2022-12-15T07:58:47.272Z,-4.40
2022-12-15T08:01:16.177Z,-4.70
2022-12-15T08:03:43.502Z,-5.00
2022-12-15T08:06:12.178Z,-5.30
2022-12-15T08:08:43.508Z,-5.40
2022-12-15T08:11:12.056Z,-5.50
2022-12-15T08:16:26.980Z,-5.40
2022-12-15T08:18:54.052Z,-5.30
2022-12-15T08:21:21.177Z,-5.20
2022-12-15T08:23:48.346Z,-5.20
2022-12-15T08:26:16.777Z,-5.00
2022-12-15T08:28:44.913Z,-5.00
2022-12-15T08:31:16.822Z,-5.00
2022-12-15T08:33:45.108Z,-4.90
2022-12-15T08:36:16.579Z,-4.80
2022-12-15T08:38:44.202Z,-4.70
2022-12-15T08:41:16.193Z,-4.70
2022-12-15T08:43:49.073Z,-4.60
2022-12-15T08:46:23.325Z,-4.50
2022-12-15T08:48:53.621Z,-4.80
2022-12-15T08:51:21.220Z,-4.90
2022-12-15T08:53:51.613Z,-4.90
2022-12-15T08:56:20.087Z,-5.10
2022-12-15T08:58:48.244Z,-5.00
2022-12-15T09:01:24.317Z,-4.80
2022-12-15T09:03:52.685Z,-4.80
2022-12-15T09:06:21.741Z,-4.70
2022-12-15T09:08:51.180Z,-4.50
2022-12-15T09:11:18.352Z,-4.30
2022-12-15T09:13:45.389Z,-4.10
2022-12-15T09:16:14.630Z,-3.90
2022-12-15T09:18:43.895Z,-3.80
2022-12-15T09:21:14.408Z,-3.70
2022-12-15T09:23:41.997Z,-3.60
2022-12-15T09:26:10.631Z,-3.40
2022-12-15T09:28:38.607Z,-3.20
2022-12-15T09:31:08.860Z,-3.10
2022-12-15T09:33:39.086Z,-3.00
2022-12-15T09:36:14.218Z,-2.90
2022-12-15T09:38:45.297Z,-2.80
2022-12-15T09:41:15.643Z,-2.60
2022-12-15T09:43:49.826Z,-2.50
2022-12-15T09:46:35.061Z,-2.40
2022-12-15T09:49:07.301Z,-2.40
2022-12-15T09:51:36.858Z,-2.30
2022-12-15T09:54:04.495Z,-2.20
2022-12-15T09:56:44.828Z,-2.30
2022-12-15T09:59:35.936Z,-2.60
2022-12-15T10:02:18.214Z,-2.80
2022-12-15T10:05:08.983Z,-2.90
2022-12-15T10:07:46.336Z,-2.80
2022-12-15T10:10:28.509Z,-2.60
2022-12-15T10:13:02.314Z,-2.60
2022-12-15T10:15:37.441Z,-2.50
2022-12-15T10:18:16.456Z,-2.40
2022-12-15T10:20:43.775Z,-2.40
2022-12-15T10:23:12.828Z,-2.40
2022-12-15T10:25:40.360Z,-2.40
2022-12-15T10:28:16.634Z,-2.30
2022-12-15T10:30:58.739Z,-2.10
2022-12-15T10:33:28.674Z,-1.80
2022-12-15T10:35:56.369Z,-1.50
2022-12-15T10:38:26.202Z,-1.60
2022-12-15T10:40:59.003Z,-1.90
2022-12-15T10:43:42.604Z,-2.00
2022-12-15T10:46:14.275Z,-2.20
2022-12-15T10:48:42.681Z,-2.20
2022-12-15T10:51:20.571Z,-2.10
2022-12-15T10:53:50.466Z,-2.00
2022-12-15T10:56:32.316Z,-1.80
2022-12-15T10:59:04.121Z,-1.60
2022-12-15T11:01:35.093Z,-1.40
2022-12-15T11:04:03.370Z,-1.30
2022-12-15T11:06:32.143Z,-1.30
2022-12-15T11:09:09.546Z,-1.40
2022-12-15T11:12:04.089Z,-1.40
2022-12-15T11:14:45.698Z,-1.30
2022-12-15T11:17:19.796Z,-1.40
2022-12-15T11:19:46.947Z,-1.40
2022-12-15T11:22:20.902Z,-1.40
2022-12-15T11:24:51.031Z,-1.40
2022-12-15T11:27:23.534Z,-1.30
2022-12-15T11:30:03.065Z,-1.30
2022-12-15T11:32:38.352Z,-1.10
2022-12-15T11:35:11.899Z,-1.00
2022-12-15T11:37:39.436Z,-0.90
2022-12-15T11:40:25.117Z,-0.90
2022-12-15T11:42:52.294Z,-1.10
2022-12-15T11:45:40.543Z,-1.20
2022-12-15T11:48:18.395Z,-1.30
2022-12-15T11:50:59.112Z,-1.40
2022-12-15T11:53:55.671Z,-1.40
2022-12-15T11:56:24.085Z,-1.30
2022-12-15T11:59:11.394Z,-1.30
2022-12-15T12:02:03.578Z,-1.20
2022-12-15T12:04:40.032Z,-1.00
2022-12-15T12:07:23.822Z,-0.80
2022-12-15T12:09:59.801Z,-0.70
2022-12-15T12:12:26.806Z,-0.70
2022-12-15T12:15:08.492Z,-0.70
2022-12-15T12:17:36.469Z,-0.70
2022-12-15T12:20:11.521Z,-0.70
2022-12-15T12:22:47.721Z,-0.80
2022-12-15T12:25:22.980Z,-0.80
2022-12-15T12:27:54.528Z,-0.70
2022-12-15T12:30:26.393Z,-0.60
2022-12-15T12:33:02.868Z,-0.50
2022-12-15T12:35:48.889Z,-0.30
2022-12-15T12:38:24.802Z,-0.20
2022-12-15T12:41:06.960Z,-0.20
2022-12-15T12:43:38.212Z,-0.30
2022-12-15T12:46:17.719Z,-0.40
2022-12-15T12:48:56.419Z,-0.50
2022-12-15T12:51:37.067Z,-0.50
2022-12-15T12:54:10.810Z,-0.50
2022-12-15T12:56:38.056Z,-0.60
2022-12-15T12:59:25.186Z,-0.70
2022-12-15T13:01:52.707Z,-0.80
2022-12-15T13:04:28.950Z,-0.70
2022-12-15T13:07:00.393Z,-0.70
2022-12-15T13:09:38.629Z,-0.80
2022-12-15T13:12:51.047Z,-0.90
2022-12-15T13:15:27.935Z,-0.90
2022-12-15T13:17:59.180Z,-0.90
2022-12-15T13:20:28.064Z,-1.00
2022-12-15T13:22:56.550Z,-1.10
2022-12-15T13:25:36.482Z,-1.30
2022-12-15T13:28:35.852Z,-1.60
2022-12-15T13:31:17.753Z,-1.80
2022-12-15T13:33:51.121Z,-2.00
2022-12-15T13:36:37.167Z,-2.10
2022-12-15T13:39:11.680Z,-2.10
2022-12-15T13:41:54.546Z,-1.90
2022-12-15T13:44:43.511Z,-1.90
2022-12-15T13:47:10.793Z,-1.90
2022-12-15T13:49:49.424Z,-1.80
2022-12-15T13:52:59.044Z,-1.80
2022-12-15T13:55:20.257Z,-1.90
2022-12-15T13:57:58.961Z,-2.00
2022-12-15T14:00:26.291Z,-2.10
2022-12-15T14:03:04.385Z,-2.10
2022-12-15T14:05:31.525Z,-2.30
2022-12-15T14:08:00.783Z,-2.30
2022-12-15T14:10:33.520Z,-2.40
2022-12-15T14:13:11.555Z,-2.50
2022-12-15T14:15:44.322Z,-2.60
2022-12-15T14:18:30.620Z,-2.80
2022-12-15T14:20:58.848Z,-2.90
2022-12-15T14:23:32.107Z,-2.90
2022-12-15T14:26:09.367Z,-2.90
2022-12-15T14:28:39.250Z,-2.90
2022-12-15T14:31:12.172Z,-3.00
2022-12-15T14:33:42.148Z,-3.00
2022-12-15T14:36:15.070Z,-3.10
2022-12-15T14:38:48.270Z,-3.10
2022-12-15T14:41:22.086Z,-3.30
2022-12-15T14:44:36.784Z,-3.40
2022-12-15T14:46:37.853Z,-3.40
2022-12-15T14:49:10.964Z,-3.50
2022-12-15T14:51:43.645Z,-3.50
2022-12-15T14:54:49.265Z,-3.50
2022-12-15T14:57:21.554Z,-3.60
2022-12-15T14:59:49.352Z,-3.80
2022-12-15T15:02:28.769Z,-3.90
2022-12-15T15:04:57.108Z,-3.90
2022-12-15T15:07:24.378Z,-4.00
2022-12-15T15:09:51.849Z,-4.10
2022-12-15T15:12:24.608Z,-4.20
2022-12-15T15:14:51.552Z,-4.20
2022-12-15T15:17:24.858Z,-4.30
2022-12-15T15:19:54.154Z,-4.30
2022-12-15T15:22:23.918Z,-4.30
2022-12-15T15:24:53.688Z,-4.40
2022-12-15T15:27:25.070Z,-4.40
2022-12-15T15:29:52.824Z,-4.50
2022-12-15T15:32:21.104Z,-4.60
2022-12-15T15:34:48.577Z,-4.70
2022-12-15T15:37:25.607Z,-4.80
2022-12-15T15:39:56.040Z,-5.10
2022-12-15T15:42:27.879Z,-5.30
2022-12-15T15:45:02.600Z,-5.30
2022-12-15T15:47:29.959Z,-5.20
2022-12-15T15:50:00.519Z,-5.30
2022-12-15T15:52:32.469Z,-5.30
2022-12-15T15:54:59.703Z,-5.20
2022-12-15T15:57:26.944Z,-5.10
2022-12-15T15:59:54.172Z,-5.10
2022-12-15T16:02:22.757Z,-5.10
2022-12-15T16:04:50.069Z,-5.10
2022-12-15T16:07:28.358Z,-5.20
2022-12-15T16:09:58.393Z,-5.10
2022-12-15T16:12:30.153Z,-5.20
2022-12-15T16:15:01.100Z,-5.20
2022-12-15T16:17:28.191Z,-5.30
2022-12-15T16:19:58.619Z,-5.40
2022-12-15T16:22:25.639Z,-5.40
2022-12-15T16:24:52.802Z,-5.40
2022-12-15T16:27:19.847Z,-5.40
2022-12-15T16:29:46.902Z,-5.30
2022-12-15T16:32:13.991Z,-5.20
2022-12-15T16:34:42.121Z,-5.30
2022-12-15T16:37:26.267Z,-5.40
2022-12-15T16:39:53.269Z,-5.40
2022-12-15T16:42:20.398Z,-5.40
2022-12-15T16:44:49.024Z,-5.50
2022-12-15T16:47:16.265Z,-5.50
2022-12-15T16:49:43.653Z,-5.50
2022-12-15T16:52:17.324Z,-5.60
2022-12-15T16:54:48.718Z,-5.70
2022-12-15T16:57:15.883Z,-5.80
2022-12-15T16:59:46.288Z,-5.90
2022-12-15T17:02:26.128Z,-6.00
2022-12-15T17:04:55.419Z,-6.20
2022-12-15T17:07:27.935Z,-6.40
2022-12-15T17:09:59.527Z,-6.40
2022-12-15T17:12:26.758Z,-6.30
2022-12-15T17:14:54.133Z,-6.20
2022-12-15T17:17:21.479Z,-6.20
2022-12-15T17:20:27.568Z,-6.10
2022-12-15T17:22:38.881Z,-6.00
2022-12-15T17:25:06.698Z,-5.90
2022-12-15T17:27:33.875Z,-5.80
2022-12-15T17:30:01.448Z,-5.80
2022-12-15T17:32:28.505Z,-5.80
2022-12-15T17:34:55.866Z,-5.80
2022-12-15T17:37:28.008Z,-5.80
2022-12-15T17:40:00.943Z,-5.90
2022-12-15T17:42:28.702Z,-5.90
2022-12-15T17:44:55.736Z,-5.90
2022-12-15T17:47:24.447Z,-6.00
2022-12-15T17:49:51.881Z,-6.20
2022-12-15T17:52:26.263Z,-6.30
2022-12-15T17:54:57.318Z,-6.30
2022-12-15T17:57:30.306Z,-6.30
2022-12-15T17:59:58.096Z,-6.40
2022-12-15T18:02:25.512Z,-6.30
2022-12-15T18:04:53.592Z,-6.40
2022-12-15T18:07:21.715Z,-6.40
2022-12-15T18:09:49.248Z,-6.40
2022-12-15T18:12:17.575Z,-6.40
2022-12-15T18:14:44.477Z,-6.50
2022-12-15T18:17:11.822Z,-6.40
2022-12-15T18:19:38.757Z,-6.60
2022-12-15T18:22:10.308Z,-6.60
2022-12-15T18:24:37.602Z,-6.40
2022-12-15T18:27:13.942Z,-6.40
2022-12-15T18:29:41.038Z,-6.40
2022-12-15T18:32:09.618Z,-6.40
2022-12-15T18:34:36.877Z,-6.30
2022-12-15T18:37:09.934Z,-6.20
2022-12-15T18:39:37.243Z,-6.30
2022-12-15T18:42:05.944Z,-6.40
2022-12-15T18:44:33.187Z,-6.50
2022-12-15T18:47:00.724Z,-6.40
2022-12-15T18:49:27.815Z,-6.30
2022-12-15T18:51:54.987Z,-6.30
2022-12-15T18:54:23.128Z,-6.30
2022-12-15T18:56:50.665Z,-6.30
2022-12-15T18:59:23.316Z,-6.40
2022-12-15T19:01:50.527Z,-6.30
2022-12-15T19:04:17.583Z,-6.40
2022-12-15T19:06:45.064Z,-6.40
2022-12-15T19:09:19.899Z,-6.30
2022-12-15T19:12:10.774Z,-6.40
2022-12-15T19:14:40.533Z,-6.60
2022-12-15T19:17:29.632Z,-6.60
2022-12-15T19:20:15.246Z,-6.60
2022-12-15T19:22:42.657Z,-6.60
2022-12-15T19:25:18.285Z,-6.70
2022-12-15T19:27:49.538Z,-6.70
2022-12-15T19:30:17.440Z,-6.60
2022-12-15T19:32:44.422Z,-6.60
2022-12-15T19:35:11.885Z,-6.60
2022-12-15T19:37:40.213Z,-6.50
2022-12-15T19:40:07.617Z,-6.50
2022-12-15T19:42:36.172Z,-6.60
2022-12-15T19:45:20.304Z,-6.70
2022-12-15T19:47:48.133Z,-6.80
2022-12-15T19:50:16.223Z,-7.00
2022-12-15T19:52:44.215Z,-7.30
2022-12-15T19:55:15.602Z,-7.30
2022-12-15T19:57:42.997Z,-7.50
2022-12-15T20:00:17.703Z,-7.60
2022-12-15T20:02:44.868Z,-7.60
2022-12-15T20:05:11.886Z,-7.50
2022-12-15T20:08:04.235Z,-7.50
2022-12-15T20:10:32.531Z,-7.60
2022-12-15T20:13:00.840Z,-7.40
2022-12-15T20:15:27.973Z,-7.60
2022-12-15T20:17:58.188Z,-7.40
2022-12-15T20:20:27.028Z,-7.50
2022-12-15T20:22:56.402Z,-7.50
2022-12-15T20:25:25.498Z,-7.60
2022-12-15T20:27:52.634Z,-7.60
2022-12-15T20:30:26.774Z,-7.70
2022-12-15T20:32:53.845Z,-7.80
2022-12-15T20:35:21.920Z,-7.80
2022-12-15T20:37:49.556Z,-7.70
2022-12-15T20:40:18.555Z,-7.70
2022-12-15T20:42:45.620Z,-7.70
2022-12-15T20:45:16.767Z,-7.70
2022-12-15T20:47:45.118Z,-7.70
2022-12-15T20:50:50.658Z,-7.70
2022-12-15T20:53:19.978Z,-7.90
2022-12-15T20:55:48.095Z,-8.00
2022-12-15T20:58:15.678Z,-8.00
2022-12-15T21:00:43.429Z,-8.00
2022-12-15T21:03:25.072Z,-7.90
2022-12-15T21:05:53.700Z,-8.00
2022-12-15T21:08:28.169Z,-7.80
2022-12-15T21:10:58.652Z,-7.70
2022-12-15T21:13:27.474Z,-7.90
2022-12-15T21:15:54.621Z,-8.00
2022-12-15T21:21:18.950Z,-7.90
2022-12-15T21:23:46.233Z,-7.80
2022-12-15T21:26:14.644Z,-7.70
2022-12-15T21:28:41.593Z,-7.70
2022-12-15T21:31:08.624Z,-7.70
2022-12-15T21:33:35.855Z,-7.70
2022-12-15T21:36:03.023Z,-7.80
2022-12-15T21:38:38.672Z,-7.80
2022-12-15T21:41:07.223Z,-7.80
2022-12-15T21:43:35.564Z,-7.70
2022-12-15T21:46:04.543Z,-7.80
2022-12-15T21:48:49.936Z,-7.90
2022-12-15T21:51:17.676Z,-7.90
2022-12-15T21:53:46.319Z,-7.90
2022-12-15T21:56:17.606Z,-7.90
2022-12-15T21:58:49.341Z,-8.00
2022-12-15T22:01:21.150Z,-8.00
2022-12-15T22:03:50.697Z,-7.80
2022-12-15T22:06:23.328Z,-7.80
2022-12-15T22:08:51.927Z,-7.80
2022-12-15T22:11:39.189Z,-7.70
2022-12-15T22:14:26.077Z,-7.80
2022-12-15T22:16:53.627Z,-7.60
2022-12-15T22:19:20.747Z,-7.50
2022-12-15T22:21:47.879Z,-7.50
2022-12-15T22:24:14.815Z,-7.60
2022-12-15T22:26:41.979Z,-7.60
2022-12-15T22:29:16.691Z,-7.60
2022-12-15T22:31:43.766Z,-7.50
2022-12-15T22:34:18.631Z,-7.50
2022-12-15T22:36:45.707Z,-7.50
2022-12-15T22:39:15.090Z,-7.40
2022-12-15T22:41:44.007Z,-7.30
2022-12-15T22:44:16.668Z,-7.40
2022-12-15T22:46:43.803Z,-7.60
2022-12-15T22:49:15.779Z,-7.60
2022-12-15T22:51:42.781Z,-7.60
2022-12-15T22:54:19.735Z,-7.50
2022-12-15T22:56:49.211Z,-7.70
2022-12-15T22:59:20.234Z,-7.70
2022-12-15T23:01:47.372Z,-7.70
2022-12-15T23:04:18.456Z,-7.70
2022-12-15T23:06:45.517Z,-7.70
2022-12-15T23:09:12.663Z,-7.70
2022-12-15T23:11:39.819Z,-7.70
2022-12-15T23:14:14.434Z,-7.80
2022-12-15T23:16:41.960Z,-7.60
2022-12-15T23:19:09.687Z,-7.50
2022-12-15T23:21:36.798Z,-7.40
2022-12-15T23:24:03.827Z,-7.20
2022-12-15T23:26:30.956Z,-7.00
2022-12-15T23:28:57.883Z,-7.10
2022-12-15T23:31:25.136Z,-7.30
2022-12-15T23:33:52.393Z,-7.60
2022-12-15T23:36:19.853Z,-7.80
2022-12-15T23:38:46.922Z,-7.90
2022-12-15T23:41:17.740Z,-7.90
2022-12-15T23:43:45.005Z,-7.60
2022-12-15T23:46:11.978Z,-7.60
2022-12-15T23:48:40.695Z,-7.60
2022-12-15T23:51:15.135Z,-7.60
2022-12-15T23:53:42.519Z,-7.80
2022-12-15T23:56:18.421Z,-8.10
2022-12-15T23:58:45.996Z,-8.20
